Time;durP1;ratioP1;P1;durP2;ratioP2;P2;SDS_P1;SDS_P2;PMS_P1;PMS_P2;Temp;Humidity;BMP_temperature;BMP_pressure;BME280_temperature;BME280_humidity;BME280_pressure;Samples;Min_cycle;Max_cycle;Signal;HPM_P1;HPM_P2
2023/11/05 00:02:24;;;;;;;3.17;1.70;;;;;;;7.03;100.00;96507.28;4915025;29;20027;-93
2023/11/05 00:04:50;;;;;;;2.03;1.65;;;;;;;6.99;100.00;96508.72;4917275;29;20046;-93
2023/11/05 00:07:16;;;;;;;4.15;1.92;;;;;;;7.01;100.00;96511.13;4914311;29;20039;-93
2023/11/05 00:09:42;;;;;;;3.83;1.25;;;;;;;7.01;100.00;96514.56;4920330;29;20043;-93
2023/11/05 00:12:08;;;;;;;4.90;2.15;;;;;;;7.02;100.00;96518.00;4898745;29;20031;-93
2023/11/05 00:14:34;;;;;;;4.30;1.63;;;;;;;7.07;100.00;96521.56;4910518;29;20032;-93
2023/11/05 00:17:00;;;;;;;3.47;1.48;;;;;;;7.09;100.00;96523.19;4927670;29;20059;-94
2023/11/05 00:19:26;;;;;;;2.70;1.33;;;;;;;7.08;100.00;96525.00;4914855;29;20127;-93
2023/11/05 00:21:51;;;;;;;1.83;1.70;;;;;;;7.06;100.00;96521.78;4929033;29;20039;-93
2023/11/05 00:24:18;;;;;;;4.70;1.63;;;;;;;7.07;100.00;96524.19;4929782;29;20055;-92
2023/11/05 00:26:44;;;;;;;5.15;1.45;;;;;;;7.05;100.00;96528.06;4929836;29;20480;-94
2023/11/05 00:29:10;;;;;;;4.18;1.95;;;;;;;7.05;100.00;96530.69;4918580;29;20129;-94
2023/11/05 00:31:35;;;;;;;4.35;2.00;;;;;;;7.04;100.00;96536.97;4906315;29;20051;-93
2023/11/05 00:34:02;;;;;;;5.35;1.65;;;;;;;7.00;100.00;96533.97;4911493;29;20042;-93
2023/11/05 00:36:27;;;;;;;3.17;1.92;;;;;;;7.00;100.00;96538.41;4899245;29;20055;-93
2023/11/05 00:38:56;;;;;;;5.18;2.28;;;;;;;7.00;100.00;96539.22;4913549;29;20107;-93
2023/11/05 00:41:22;;;;;;;7.05;2.25;;;;;;;7.03;100.00;96544.03;4929654;29;20042;-93
2023/11/05 00:43:48;;;;;;;4.47;1.50;;;;;;;7.04;100.00;96544.84;4931991;29;20032;-94
2023/11/05 00:46:14;;;;;;;5.05;2.38;;;;;;;7.06;100.00;96551.47;4916253;29;20076;-93
2023/11/05 00:48:40;;;;;;;3.25;1.67;;;;;;;7.05;100.00;96557.75;4898309;29;20395;-92
2023/11/05 00:51:06;;;;;;;2.90;1.70;;;;;;;7.05;100.00;96555.13;4949479;29;20055;-94
2023/11/05 00:53:32;;;;;;;2.33;1.23;;;;;;;7.02;100.00;96552.13;4951469;28;20043;-94
2023/11/05 00:55:58;;;;;;;5.13;1.40;;;;;;;7.01;100.00;96559.19;4938492;29;20441;-93
2023/11/05 00:58:24;;;;;;;3.92;1.40;;;;;;;7.03;100.00;96567.66;4936351;29;20036;-94
2023/11/05 01:00:50;;;;;;;4.97;1.42;;;;;;;7.00;100.00;96557.59;4922427;29;20411;-94
2023/11/05 01:03:16;;;;;;;7.10;1.65;;;;;;;7.01;100.00;96567.06;4940650;29;20082;-94
2023/11/05 01:05:42;;;;;;;2.05;1.70;;;;;;;7.00;100.00;96567.28;4934037;29;20046;-93
2023/11/05 01:08:07;;;;;;;6.20;1.90;;;;;;;6.91;100.00;96564.16;4956036;28;20032;-93
2023/11/05 01:10:33;;;;;;;4.13;2.00;;;;;;;6.93;100.00;96573.41;4960836;28;20074;-93
2023/11/05 01:12:59;;;;;;;2.47;1.88;;;;;;;6.90;100.00;96571.22;4927507;28;20035;-93
2023/11/05 01:15:25;;;;;;;8.55;2.20;;;;;;;6.86;100.00;96577.94;4929081;28;20042;-92
2023/11/05 01:17:51;;;;;;;7.22;2.70;;;;;;;6.81;100.00;96575.13;4952316;28;20030;-93
2023/11/05 01:20:17;;;;;;;5.82;2.60;;;;;;;6.75;100.00;96574.19;4939410;29;20043;-93
2023/11/05 01:22:43;;;;;;;10.68;3.15;;;;;;;6.67;100.00;96570.00;4935861;28;20094;-93
2023/11/05 01:25:10;;;;;;;6.65;2.78;;;;;;;6.68;100.00;96565.56;4961463;28;20031;-93
2023/11/05 01:27:36;;;;;;;4.93;2.42;;;;;;;6.63;100.00;96573.25;4940975;29;20412;-93
2023/11/05 01:30:02;;;;;;;7.60;2.35;;;;;;;6.57;100.00;96573.13;4939690;29;20082;-93
2023/11/05 01:32:28;;;;;;;6.68;2.28;;;;;;;6.55;100.00;96587.47;4940545;29;20412;-93
2023/11/05 01:34:54;;;;;;;4.45;1.88;;;;;;;6.56;100.00;96587.25;4940222;28;20034;-93
2023/11/05 01:37:20;;;;;;;5.20;1.95;;;;;;;6.52;100.00;96582.63;4936165;29;20039;-94
2023/11/05 01:39:46;;;;;;;5.88;2.00;;;;;;;6.54;100.00;96584.06;4934124;29;20046;-93
2023/11/05 01:42:12;;;;;;;2.75;1.63;;;;;;;6.62;100.00;96592.66;4922779;29;20054;-93
2023/11/05 01:44:37;;;;;;;4.57;2.00;;;;;;;6.66;100.00;96591.19;4936407;29;20043;-95
2023/11/05 01:47:04;;;;;;;5.75;2.00;;;;;;;6.69;100.00;96590.78;4933936;29;20071;-94
2023/11/05 01:49:29;;;;;;;3.42;1.90;;;;;;;6.71;100.00;96591.38;4931573;29;20133;-93
2023/11/05 01:51:55;;;;;;;7.07;2.05;;;;;;;6.71;100.00;96596.63;4919425;29;20095;-93
2023/11/05 01:54:22;;;;;;;5.63;2.25;;;;;;;6.74;100.00;96614.56;4936461;29;20086;-93
2023/11/05 01:56:47;;;;;;;5.60;1.77;;;;;;;6.73;100.00;96604.28;4940136;29;20110;-92
2023/11/05 01:59:14;;;;;;;7.18;1.83;;;;;;;6.78;100.00;96605.25;4926160;29;20043;-93
2023/11/05 02:01:45;;;;;;;7.07;1.92;;;;;;;6.80;100.00;96607.66;4939207;29;20492;-93
2023/11/05 02:04:11;;;;;;;6.85;2.08;;;;;;;6.67;100.00;96604.09;4955664;28;20106;-94
2023/11/05 02:06:37;;;;;;;3.47;1.45;;;;;;;6.68;100.00;96620.66;4953897;29;20122;-94
2023/11/05 02:09:04;;;;;;;4.80;2.05;;;;;;;6.64;100.00;96611.63;4937210;29;20051;-94
2023/11/05 02:11:30;;;;;;;5.78;1.55;;;;;;;6.64;100.00;96620.28;4939904;29;20083;-93
2023/11/05 02:13:55;;;;;;;2.85;1.50;;;;;;;6.66;100.00;96623.50;4922747;29;20047;-93
2023/11/05 02:16:24;;;;;;;4.00;1.48;;;;;;;6.70;100.00;96627.28;4932054;29;20035;-93
2023/11/05 02:18:52;;;;;;;3.58;1.52;;;;;;;6.73;100.00;96626.09;4939512;29;20050;-93
2023/11/05 02:21:26;;;;;;;4.35;1.50;;;;;;;6.77;100.00;96636.97;4946564;28;20043;-94
2023/11/05 02:23:53;;;;;;;9.75;1.70;;;;;;;6.67;100.00;96627.72;4954873;28;20381;-93
2023/11/05 02:26:18;;;;;;;6.85;1.27;;;;;;;6.72;100.00;96629.72;4920730;29;20035;-95
2023/11/05 02:28:44;;;;;;;3.53;1.45;;;;;;;6.70;100.00;96631.75;4931866;29;20039;-94
2023/11/05 02:31:10;;;;;;;3.00;0.80;;;;;;;6.70;100.00;96637.00;4933445;29;20042;-94
2023/11/05 02:33:43;;;;;;;4.70;1.08;;;;;;;6.78;100.00;96639.38;4926067;29;20035;-94
2023/11/05 02:36:12;;;;;;;3.47;0.77;;;;;;;6.75;100.00;96637.19;4924010;29;20035;-94
2023/11/05 02:38:38;;;;;;;5.68;0.93;;;;;;;6.76;100.00;96632.72;4923022;29;20236;-93
2023/11/05 02:41:06;;;;;;;7.00;1.27;;;;;;;6.80;100.00;96649.66;4922775;29;20039;-93
2023/11/05 02:43:32;;;;;;;2.58;0.70;;;;;;;6.77;100.00;96640.38;4921634;29;20058;-94
2023/11/05 02:45:59;;;;;;;6.88;1.02;;;;;;;6.78;100.00;96649.06;4928534;29;20075;-93
2023/11/05 02:48:25;;;;;;;3.45;0.63;;;;;;;6.77;100.00;96648.25;4934703;29;20514;-94
2023/11/05 02:50:51;;;;;;;5.28;0.73;;;;;;;6.76;100.00;96648.47;4928662;29;20079;-93
2023/11/05 02:53:18;;;;;;;2.35;0.75;;;;;;;6.78;100.00;96646.44;4923771;29;20050;-93
2023/11/05 02:55:44;;;;;;;8.20;1.20;;;;;;;6.81;100.00;96657.31;4931623;29;20039;-94
2023/11/05 02:58:15;;;;;;;2.92;0.80;;;;;;;6.86;100.00;96655.88;4937539;29;20389;-93
2023/11/05 03:00:41;;;;;;;7.03;1.10;;;;;;;6.82;100.00;96656.28;4938177;29;20047;-94
2023/11/05 03:03:09;;;;;;;2.33;0.55;;;;;;;6.88;100.00;96665.13;4921066;29;20034;-93
2023/11/05 03:05:35;;;;;;;4.03;0.60;;;;;;;6.86;100.00;96658.50;4932812;29;20035;-94
2023/11/05 03:08:01;;;;;;;3.85;1.10;;;;;;;6.89;100.00;96655.44;4937178;29;20042;-94
2023/11/05 03:10:27;;;;;;;1.92;0.77;;;;;;;6.92;100.00;96660.25;4924225;29;20504;-93
2023/11/05 03:12:52;;;;;;;2.47;0.73;;;;;;;6.95;100.00;96665.88;4937267;29;20035;-93
2023/11/05 03:15:18;;;;;;;3.80;0.80;;;;;;;6.99;100.00;96665.44;4922738;29;20507;-93
2023/11/05 03:17:44;;;;;;;3.40;0.55;;;;;;;6.99;100.00;96662.81;4911641;29;20088;-94
2023/11/05 03:20:10;;;;;;;6.78;0.80;;;;;;;7.05;100.00;96675.09;4933226;29;20480;-93
2023/11/05 03:22:39;;;;;;;5.80;0.90;;;;;;;7.11;100.00;96671.59;4933718;29;20035;-93
2023/11/05 03:25:06;;;;;;;5.82;2.17;;;;;;;7.13;100.00;96674.00;4938694;29;20031;-93
2023/11/05 03:27:32;;;;;;;7.20;0.80;;;;;;;7.15;100.00;96670.16;4932222;29;20093;-93
2023/11/05 03:29:58;;;;;;;2.15;0.90;;;;;;;7.21;100.00;96673.75;4934827;29;20063;-93
2023/11/05 03:32:24;;;;;;;5.03;1.55;;;;;;;7.26;100.00;96681.75;4947991;29;20039;-92
2023/11/05 03:34:50;;;;;;;3.67;1.02;;;;;;;7.31;100.00;96689.03;4918628;29;20042;-93
2023/11/05 03:37:16;;;;;;;4.97;0.77;;;;;;;7.36;100.00;96688.38;4918317;29;20066;-93
2023/11/05 03:39:43;;;;;;;8.40;1.00;;;;;;;7.39;100.00;96686.09;4921871;29;20050;-92
2023/11/05 03:42:10;;;;;;;1.42;0.40;;;;;;;7.43;100.00;96687.28;4932774;29;20038;-93
2023/11/05 03:44:36;;;;;;;3.22;0.68;;;;;;;7.49;100.00;96690.03;4935041;29;20384;-93
2023/11/05 03:47:03;;;;;;;2.25;0.52;;;;;;;7.51;100.00;96682.75;4946380;29;20361;-93
2023/11/05 03:49:28;;;;;;;4.70;0.60;;;;;;;7.54;100.00;96695.44;4939277;28;20062;-93
2023/11/05 03:51:54;;;;;;;2.15;0.47;;;;;;;7.61;100.00;96701.47;4919202;29;20477;-93
2023/11/05 03:54:20;;;;;;;8.13;1.10;;;;;;;7.59;100.00;96700.06;4947319;28;20481;-93
2023/11/05 03:56:46;;;;;;;1.40;0.50;;;;;;;7.62;100.00;96695.19;4929672;29;20039;-93
2023/11/05 03:59:12;;;;;;;2.53;0.60;;;;;;;7.62;100.00;96692.53;4933608;29;20406;-93
2023/11/05 04:01:38;;;;;;;4.50;0.50;;;;;;;7.66;100.00;96698.19;4922470;29;20131;-93
2023/11/05 04:04:04;;;;;;;4.13;0.45;;;;;;;7.67;100.00;96697.16;4937453;29;20078;-93
2023/11/05 04:06:31;;;;;;;6.75;0.50;;;;;;;7.68;100.00;96693.47;4904358;29;20039;-93
2023/11/05 04:08:57;;;;;;;3.47;0.45;;;;;;;7.69;100.00;96700.38;4931909;29;20039;-93
2023/11/05 04:11:22;;;;;;;6.57;0.60;;;;;;;7.69;100.00;96703.00;4936485;29;20046;-93
2023/11/05 04:13:48;;;;;;;3.60;0.70;;;;;;;7.71;100.00;96700.16;4922162;29;20035;-92
2023/11/05 04:16:14;;;;;;;7.47;0.90;;;;;;;7.68;100.00;96701.38;4927492;29;20054;-92
2023/11/05 04:18:41;;;;;;;6.05;0.50;;;;;;;7.70;100.00;96704.59;4933301;29;20039;-93
2023/11/05 04:21:07;;;;;;;3.80;1.20;;;;;;;7.65;100.00;96705.25;4935419;29;20027;-93
2023/11/05 04:23:33;;;;;;;5.70;0.68;;;;;;;7.66;100.00;96712.09;4949162;28;20052;-92
2023/11/05 04:25:59;;;;;;;1.95;0.63;;;;;;;7.64;100.00;96708.09;4926601;29;20189;-93
2023/11/05 04:28:25;;;;;;;5.03;0.55;;;;;;;7.66;100.00;96721.84;4945793;29;20404;-94
2023/11/05 04:30:50;;;;;;;7.97;0.75;;;;;;;7.66;100.00;96724.47;4942371;28;20038;-93
2023/11/05 04:33:16;;;;;;;7.03;0.60;;;;;;;7.66;100.00;96722.63;4941862;29;20035;-93
2023/11/05 04:35:42;;;;;;;8.00;0.95;;;;;;;7.70;100.00;96738.75;4952453;28;20039;-93
2023/11/05 04:38:08;;;;;;;5.75;0.70;;;;;;;7.72;100.00;96736.72;4915026;29;20082;-93
2023/11/05 04:40:34;;;;;;;4.82;0.60;;;;;;;7.73;100.00;96733.06;4958229;29;20130;-92
2023/11/05 04:43:00;;;;;;;11.02;1.52;;;;;;;7.74;100.00;96744.41;4925120;29;20071;-93
2023/11/05 04:45:25;;;;;;;8.07;1.15;;;;;;;7.74;100.00;96742.56;4923550;29;20043;-93
2023/11/05 04:47:51;;;;;;;7.85;0.80;;;;;;;7.76;100.00;96750.22;4941864;29;20082;-93
2023/11/05 04:50:17;;;;;;;10.27;0.80;;;;;;;7.78;100.00;96759.53;4954661;29;20508;-93
2023/11/05 04:52:43;;;;;;;2.58;0.63;;;;;;;7.81;100.00;96758.28;4938543;29;20035;-93
2023/11/05 04:55:09;;;;;;;10.50;1.20;;;;;;;7.80;100.00;96754.81;4939333;29;20047;-93
2023/11/05 04:57:34;;;;;;;7.28;0.88;;;;;;;7.82;100.00;96763.31;4942799;29;20484;-93
2023/11/05 05:00:00;;;;;;;6.57;1.13;;;;;;;7.84;100.00;96767.53;4925267;29;20681;-93
2023/11/05 05:02:26;;;;;;;3.33;0.73;;;;;;;7.88;100.00;96776.63;4937587;29;20039;-93
2023/11/05 05:04:52;;;;;;;9.27;2.55;;;;;;;7.87;100.00;96772.38;4923626;29;20039;-93
2023/11/05 05:07:18;;;;;;;9.32;0.85;;;;;;;7.89;100.00;96773.75;4938431;29;20042;-94
2023/11/05 05:09:44;;;;;;;6.65;0.82;;;;;;;7.89;100.00;96778.22;4947433;29;20047;-93
2023/11/05 05:12:09;;;;;;;8.27;0.82;;;;;;;7.90;100.00;96779.84;4962557;28;20051;-93
2023/11/05 05:14:35;;;;;;;6.70;0.73;;;;;;;7.91;100.00;96781.44;4938467;29;20050;-93
2023/11/05 05:17:02;;;;;;;6.90;0.95;;;;;;;7.91;100.00;96784.06;4940336;29;20541;-94
2023/11/05 05:19:28;;;;;;;4.10;0.68;;;;;;;7.89;100.00;96792.16;4928040;29;20045;-94
2023/11/05 05:21:53;;;;;;;3.95;0.68;;;;;;;7.90;100.00;96787.72;4928347;29;20039;-95
2023/11/05 05:24:19;;;;;;;8.40;0.60;;;;;;;7.93;100.00;96790.69;4937190;29;20381;-94
2023/11/05 05:26:45;;;;;;;4.28;1.02;;;;;;;7.95;100.00;96787.84;4917440;29;20046;-93
2023/11/05 05:29:11;;;;;;;4.88;0.40;;;;;;;7.97;100.00;96796.34;4938782;29;20038;-93
2023/11/05 05:31:37;;;;;;;9.02;1.10;;;;;;;7.99;100.00;96789.03;4940816;29;20043;-94
2023/11/05 05:34:03;;;;;;;3.78;0.77;;;;;;;7.99;100.00;96796.94;4940759;28;20059;-94
2023/11/05 05:36:29;;;;;;;7.65;0.82;;;;;;;7.95;100.00;96787.84;4939676;29;20046;-94
2023/11/05 05:38:55;;;;;;;7.35;0.80;;;;;;;7.97;100.00;96796.34;4934066;29;20365;-94
2023/11/05 05:41:21;;;;;;;2.58;0.57;;;;;;;7.99;100.00;96794.31;4927760;29;20050;-93
2023/11/05 05:43:47;;;;;;;2.63;0.32;;;;;;;7.98;100.00;96802.41;4934073;29;20039;-94
2023/11/05 05:46:16;;;;;;;9.70;0.60;;;;;;;8.02;100.00;96809.66;4933263;29;20043;-94
2023/11/05 05:48:43;;;;;;;9.90;0.63;;;;;;;7.98;100.00;96813.72;4938414;29;20090;-94
2023/11/05 05:51:09;;;;;;;4.10;0.57;;;;;;;7.99;100.00;96817.16;4924359;29;20074;-94
2023/11/05 05:53:35;;;;;;;7.72;0.88;;;;;;;8.01;100.00;96820.38;4936495;29;20508;-93
2023/11/05 05:56:01;;;;;;;6.65;0.68;;;;;;;8.01;100.00;96823.00;4924061;29;20072;-94
2023/11/05 05:58:27;;;;;;;9.05;1.10;;;;;;;8.02;100.00;96833.31;4935688;29;20101;-94
2023/11/05 06:00:53;;;;;;;8.02;1.17;;;;;;;8.02;100.00;96841.22;4931601;29;20035;-94
2023/11/05 06:03:19;;;;;;;3.60;0.55;;;;;;;8.00;100.00;96843.25;4932572;29;20032;-94
2023/11/05 06:05:44;;;;;;;7.28;1.67;;;;;;;8.03;100.00;96848.06;4953066;28;20039;-94
2023/11/05 06:08:10;;;;;;;5.57;0.65;;;;;;;8.01;100.00;96844.84;4919207;29;20114;-95
2023/11/05 06:10:36;;;;;;;7.13;0.60;;;;;;;8.04;100.00;96852.28;4922996;29;20095;-94
2023/11/05 06:13:02;;;;;;;9.32;1.15;;;;;;;8.04;100.00;96844.41;4938359;29;20046;-93
2023/11/05 06:15:28;;;;;;;2.20;0.40;;;;;;;8.06;100.00;96858.16;4935878;29;20393;-94
2023/11/05 06:17:54;;;;;;;6.13;0.55;;;;;;;8.09;100.00;96861.38;4937957;29;20135;-93
2023/11/05 06:20:20;;;;;;;8.77;0.77;;;;;;;8.09;100.00;96861.38;4937419;29;20564;-93
2023/11/05 06:22:45;;;;;;;6.03;0.60;;;;;;;8.07;100.00;96867.63;4954983;28;20042;-94
2023/11/05 06:25:11;;;;;;;11.80;1.05;;;;;;;8.10;100.00;96868.22;4894996;29;20035;-95
2023/11/05 06:27:38;;;;;;;7.53;0.80;;;;;;;8.10;100.00;96873.50;4947151;29;20485;-93
2023/11/05 06:30:06;;;;;;;8.13;1.05;;;;;;;8.13;100.00;96879.13;4934045;29;20053;-94
2023/11/05 06:32:33;;;;;;;8.40;1.10;;;;;;;8.11;100.00;96877.72;4938937;29;20051;-94
2023/11/05 06:34:59;;;;;;;9.55;1.25;;;;;;;8.13;100.00;96888.84;4951905;29;20043;-94
2023/11/05 06:37:25;;;;;;;6.80;0.80;;;;;;;8.13;100.00;96891.47;4964930;28;20039;-93
2023/11/05 06:39:51;;;;;;;9.30;1.20;;;;;;;8.14;100.00;96895.69;4937237;29;20388;-94
2023/11/05 06:42:17;;;;;;;6.28;0.77;;;;;;;8.14;100.00;96900.97;4939970;29;20039;-94
2023/11/05 06:44:42;;;;;;;9.35;0.73;;;;;;;8.13;100.00;96910.69;4938328;29;20107;-84
2023/11/05 06:47:08;;;;;;;7.72;0.47;;;;;;;8.14;100.00;96908.84;4940185;28;20042;-93
2023/11/05 06:49:35;;;;;;;4.47;0.50;;;;;;;8.13;100.00;96920.41;4923064;29;20045;-95
2023/11/05 06:52:00;;;;;;;10.85;1.17;;;;;;;8.12;100.00;96921.44;4920604;29;20577;-94
2023/11/05 06:54:27;;;;;;;5.10;0.60;;;;;;;8.12;100.00;96926.69;4920015;29;20051;-94
2023/11/05 06:56:53;;;;;;;10.73;0.85;;;;;;;8.14;100.00;96933.34;4919697;29;20046;-94
2023/11/05 06:59:19;;;;;;;6.50;0.77;;;;;;;8.15;100.00;96929.72;4919775;29;20035;-94
2023/11/05 07:01:47;;;;;;;7.93;0.40;;;;;;;8.15;100.00;96934.16;4915632;29;20047;-94
2023/11/05 07:04:13;;;;;;;4.65;0.57;;;;;;;8.16;100.00;96938.38;4902122;29;20039;-94
2023/11/05 07:06:39;;;;;;;5.13;0.52;;;;;;;8.17;100.00;96940.03;4916654;29;20042;-93
2023/11/05 07:09:06;;;;;;;4.63;0.57;;;;;;;8.18;100.00;96949.50;4929213;29;20035;-94
2023/11/05 07:11:32;;;;;;;4.35;0.60;;;;;;;8.19;100.00;96951.13;4919232;29;20052;-93
2023/11/05 07:13:58;;;;;;;5.25;0.57;;;;;;;8.21;100.00;96953.53;4932289;29;20540;-94
2023/11/05 07:16:25;;;;;;;5.72;0.55;;;;;;;8.21;100.00;96953.53;4927601;29;20075;-93
2023/11/05 07:18:52;;;;;;;4.85;0.73;;;;;;;8.20;100.00;96952.75;4919726;29;20044;-94
2023/11/05 07:21:17;;;;;;;5.57;0.55;;;;;;;8.22;100.00;96963.06;4918825;29;20477;-94
2023/11/05 07:23:43;;;;;;;4.25;0.63;;;;;;;8.22;100.00;96966.47;4916483;29;20055;-95
2023/11/05 07:26:10;;;;;;;4.72;0.63;;;;;;;8.25;100.00;96970.50;4903344;29;20031;-94
2023/11/05 07:28:36;;;;;;;9.95;0.70;;;;;;;8.23;100.00;96976.00;4910655;29;20067;-94
2023/11/05 07:31:03;;;;;;;4.70;0.55;;;;;;;8.24;100.00;96976.78;4933307;29;20038;-94
2023/11/05 07:33:28;;;;;;;5.63;0.60;;;;;;;8.24;100.00;96982.03;4919275;29;20035;-93
2023/11/05 07:35:54;;;;;;;5.15;0.77;;;;;;;8.22;100.00;96986.72;4920035;29;20556;-94
2023/11/05 07:38:21;;;;;;;4.20;0.40;;;;;;;8.21;100.00;96991.19;4935694;29;20094;-93
2023/11/05 07:40:48;;;;;;;8.30;0.60;;;;;;;8.21;100.00;96995.63;4900530;29;20044;-94
2023/11/05 07:43:14;;;;;;;8.50;1.77;;;;;;;8.22;100.00;96998.03;4901731;29;20445;-95
2023/11/05 07:45:40;;;;;;;6.97;0.55;;;;;;;8.22;100.00;97005.16;4935797;29;20035;-93
2023/11/05 07:48:06;;;;;;;3.10;0.50;;;;;;;8.22;100.00;97010.41;4900851;29;20039;-94
2023/11/05 07:50:31;;;;;;;4.78;0.52;;;;;;;8.21;100.00;97014.03;4906320;29;20046;-93
2023/11/05 07:52:57;;;;;;;2.70;0.45;;;;;;;8.19;100.00;97016.88;4931705;28;20036;-94
2023/11/05 07:55:23;;;;;;;6.38;0.50;;;;;;;8.17;100.00;97022.34;4942931;28;20046;-94
2023/11/05 07:57:49;;;;;;;2.63;0.40;;;;;;;8.18;100.00;97031.88;4934903;28;20039;-94
2023/11/05 08:00:17;;;;;;;7.15;0.52;;;;;;;8.18;100.00;97029.25;4956323;28;20041;-94
2023/11/05 08:02:44;;;;;;;3.95;0.68;;;;;;;8.23;100.00;97039.13;4923478;28;20062;-94
2023/11/05 08:05:11;;;;;;;3.88;0.70;;;;;;;8.22;100.00;97034.88;4952945;28;20062;-94
2023/11/05 08:07:36;;;;;;;3.95;0.40;;;;;;;8.23;100.00;97044.41;4925858;29;20035;-94
2023/11/05 08:10:06;;;;;;;4.25;0.63;;;;;;;8.23;100.00;97041.75;4941079;28;20026;-93
2023/11/05 08:12:32;;;;;;;5.28;0.47;;;;;;;8.24;100.00;97051.25;4947253;28;20110;-93
2023/11/05 08:14:59;;;;;;;5.13;0.47;;;;;;;8.25;100.00;97050.22;4941641;28;20039;-93
2023/11/05 08:17:25;;;;;;;1.70;0.32;;;;;;;8.27;100.00;97052.66;4942874;28;20129;-93
2023/11/05 08:19:50;;;;;;;4.82;0.43;;;;;;;8.27;100.00;97050.81;4938155;28;20173;-93
2023/11/05 08:22:17;;;;;;;5.15;0.63;;;;;;;8.29;100.00;97064.59;4925112;28;20602;-93
2023/11/05 08:24:44;;;;;;;7.55;0.77;;;;;;;8.29;100.00;97061.13;4923371;28;20058;-93
2023/11/05 08:27:10;;;;;;;6.53;0.60;;;;;;;8.26;100.00;97067.66;4956174;28;20042;-94
2023/11/05 08:29:45;;;;;;;7.55;1.02;;;;;;;8.35;100.00;97070.00;4924763;28;20043;-94
2023/11/05 08:32:10;;;;;;;2.88;0.60;;;;;;;8.28;100.00;97078.75;4921834;29;20122;-93
2023/11/05 08:34:36;;;;;;;3.03;0.43;;;;;;;8.30;100.00;97081.16;4918109;28;20039;-93
2023/11/05 08:37:02;;;;;;;5.70;0.65;;;;;;;8.31;100.00;97077.53;4940601;28;20426;-93
2023/11/05 08:39:30;;;;;;;7.82;1.27;;;;;;;8.30;100.00;97089.88;4940497;28;20043;-94
2023/11/05 08:41:57;;;;;;;8.35;0.98;;;;;;;8.31;100.00;97091.47;4936129;28;20031;-93
2023/11/05 08:44:23;;;;;;;8.38;0.80;;;;;;;8.33;100.00;97093.88;4937741;28;20122;-94
2023/11/05 08:46:49;;;;;;;1.83;0.55;;;;;;;8.35;100.00;97101.56;4956934;28;20058;-94
2023/11/05 08:49:15;;;;;;;4.55;0.75;;;;;;;8.36;100.00;97100.56;4925555;28;20375;-94
2023/11/05 08:51:41;;;;;;;4.35;0.60;;;;;;;8.38;100.00;97106.41;4939008;28;20035;-93
2023/11/05 08:54:07;;;;;;;4.68;0.50;;;;;;;8.36;100.00;97108.47;4960892;28;20105;-93
2023/11/05 08:56:33;;;;;;;4.00;0.60;;;;;;;8.36;100.00;97114.50;4937442;28;20043;-95
2023/11/05 08:58:58;;;;;;;6.70;0.55;;;;;;;8.36;100.00;97117.16;4937639;29;20488;-94
2023/11/05 09:01:24;;;;;;;3.45;0.52;;;;;;;8.39;100.00;97123.81;4944306;28;20053;-94
2023/11/05 09:03:51;;;;;;;5.95;0.50;;;;;;;8.33;100.00;97112.31;4917242;28;20023;-93
2023/11/05 09:06:18;;;;;;;3.05;0.65;;;;;;;8.39;100.00;97121.19;4940454;28;20047;-94
2023/11/05 09:08:44;;;;;;;8.55;0.75;;;;;;;8.41;100.00;97127.03;4920558;28;20042;-93
2023/11/05 09:11:11;;;;;;;6.75;1.20;;;;;;;8.46;100.00;97126.44;4935021;28;20047;-94
2023/11/05 09:13:37;;;;;;;2.58;0.45;;;;;;;8.50;100.00;97131.06;4936588;29;20071;-93
2023/11/05 09:16:06;;;;;;;5.78;0.60;;;;;;;8.54;100.00;97134.88;4941004;28;20066;-95
2023/11/05 09:18:32;;;;;;;5.00;0.70;;;;;;;8.53;100.00;97130.63;4946086;28;20038;-94
2023/11/05 09:20:58;;;;;;;1.40;0.50;;;;;;;8.52;100.00;97136.09;4938012;28;20073;-94
2023/11/05 09:23:24;;;;;;;7.20;0.93;;;;;;;8.51;100.00;97142.38;4939207;28;20062;-93
2023/11/05 09:25:51;;;;;;;12.00;1.00;;;;;;;8.53;100.00;97146.41;4955789;28;20034;-94
2023/11/05 09:28:17;;;;;;;4.47;0.57;;;;;;;8.52;100.00;97155.31;4942840;28;20038;-93
2023/11/05 09:30:43;;;;;;;8.88;0.57;;;;;;;8.50;100.00;97154.75;4941345;28;20046;-93
2023/11/05 09:33:09;;;;;;;5.78;0.70;;;;;;;8.48;100.00;97148.06;4942329;29;20400;-94
2023/11/05 09:35:36;;;;;;;5.75;0.95;;;;;;;8.49;100.00;97160.22;4952372;28;20049;-95
2023/11/05 09:38:02;;;;;;;6.28;0.57;;;;;;;8.58;100.00;97163.41;4925159;28;20118;-93
2023/11/05 09:40:31;;;;;;;8.85;0.55;;;;;;;8.65;100.00;97159.72;4938822;28;20034;-92
2023/11/05 09:43:05;;;;;;;4.95;0.63;;;;;;;8.80;100.00;97166.50;4942956;28;20030;-93
2023/11/05 09:45:35;;;;;;;8.77;1.45;;;;;;;8.85;100.00;97168.50;4942404;28;20043;-93
2023/11/05 09:48:04;;;;;;;3.30;0.65;;;;;;;8.89;100.00;97170.47;4940905;28;20475;-93
2023/11/05 09:50:30;;;;;;;4.78;0.60;;;;;;;8.92;100.00;97170.06;4938206;28;20035;-92
2023/11/05 09:53:10;;;;;;;7.45;0.95;;;;;;;9.04;100.00;97180.72;4928336;28;20121;-92
2023/11/05 09:55:39;;;;;;;4.60;0.80;;;;;;;9.06;100.00;97185.75;4943347;28;20081;-92
2023/11/05 09:58:06;;;;;;;3.67;0.60;;;;;;;9.12;100.00;97182.25;4946477;28;20038;-92
2023/11/05 10:00:32;;;;;;;8.18;0.70;;;;;;;9.16;100.00;97185.25;4939700;28;20092;-92
2023/11/05 10:03:01;;;;;;;5.18;0.60;;;;;;;9.18;100.00;97186.66;4925462;28;20037;-93
2023/11/05 10:05:32;;;;;;;6.32;0.50;;;;;;;9.24;100.00;97177.09;4938520;28;20042;-94
2023/11/05 10:07:58;;;;;;;3.65;0.65;;;;;;;9.25;100.00;97183.94;4926269;28;20078;-92
2023/11/05 10:10:24;;;;;;;4.68;0.63;;;;;;;9.32;100.00;97181.25;4954416;28;20057;-93
2023/11/05 10:12:50;;;;;;;7.72;0.95;;;;;;;9.35;100.00;97180.84;4939527;28;20059;-93
2023/11/05 10:15:17;;;;;;;6.50;1.08;;;;;;;9.41;100.00;97185.22;4938827;28;20066;-93
2023/11/05 10:17:44;;;;;;;7.25;0.90;;;;;;;9.42;100.00;97184.22;4923828;29;20039;-94
2023/11/05 10:20:10;;;;;;;4.93;0.70;;;;;;;9.49;100.00;97180.72;4931982;28;20492;-92
2023/11/05 10:22:43;;;;;;;3.03;0.80;;;;;;;9.55;100.00;97185.94;4923201;28;20034;-94
2023/11/05 10:25:36;;;;;;;3.22;0.90;;;;;;;9.58;100.00;97182.03;4933101;28;20035;-93
2023/11/05 10:28:03;;;;;;;5.50;0.63;;;;;;;9.54;100.00;97184.31;4928764;28;20134;-93
2023/11/05 10:30:31;;;;;;;4.53;0.77;;;;;;;9.58;100.00;97192.59;4943530;28;20415;-93
2023/11/05 10:32:57;;;;;;;5.18;0.77;;;;;;;9.63;100.00;97190.09;4916891;28;20122;-93
2023/11/05 10:35:28;;;;;;;9.73;1.23;;;;;;;9.70;100.00;97194.50;4943282;28;20113;-93
2023/11/05 10:37:54;;;;;;;4.55;0.80;;;;;;;9.75;100.00;97192.81;4938384;28;20146;-95
2023/11/05 10:40:21;;;;;;;2.20;0.50;;;;;;;9.82;100.00;97186.66;4932728;28;20121;-93
2023/11/05 10:42:51;;;;;;;2.55;0.60;;;;;;;9.93;100.00;97193.84;4934211;28;20031;-95
2023/11/05 10:45:21;;;;;;;7.55;0.88;;;;;;;9.98;100.00;97199.25;4931035;28;20533;-93
2023/11/05 10:47:47;;;;;;;9.65;0.90;;;;;;;9.99;100.00;97203.50;4933934;28;20034;-94
2023/11/05 10:50:20;;;;;;;4.75;0.47;;;;;;;10.04;100.00;97205.47;4930530;28;20043;-95
2023/11/05 10:52:49;;;;;;;5.97;0.98;;;;;;;10.08;100.00;97211.13;4934607;28;20031;-94
2023/11/05 10:55:15;;;;;;;9.80;1.00;;;;;;;10.14;100.00;97216.34;4905488;29;20420;-93
2023/11/05 10:57:46;;;;;;;5.68;0.80;;;;;;;10.26;100.00;97224.28;4906968;29;20035;-93
2023/11/05 11:00:15;;;;;;;8.77;1.00;;;;;;;10.36;100.00;97222.97;4903548;29;20393;-93
2023/11/05 11:02:45;;;;;;;7.25;0.77;;;;;;;10.39;100.00;97225.16;4904890;29;20519;-92
2023/11/05 11:05:15;;;;;;;3.85;0.80;;;;;;;10.42;100.00;97222.88;4905630;29;20421;-92
2023/11/05 11:07:42;;;;;;;3.42;0.70;;;;;;;10.46;100.00;97231.19;4938279;29;20031;-94
2023/11/05 11:10:20;;;;;;;9.20;0.93;;;;;;;10.54;100.00;97236.16;4903052;29;20104;-92
2023/11/05 11:12:46;;;;;;;10.25;1.05;;;;;;;10.56;100.00;97253.63;4884499;29;20040;-92
2023/11/05 11:15:33;;;;;;;5.20;0.90;;;;;;;10.67;100.00;97258.94;4913137;29;20392;-94
2023/11/05 11:18:03;;;;;;;7.57;1.15;;;;;;;10.68;100.00;97251.81;4911811;29;20051;-92
2023/11/05 11:20:32;;;;;;;6.00;0.80;;;;;;;10.76;100.00;97256.00;4918012;29;20066;-93
2023/11/05 11:23:03;;;;;;;8.15;0.80;;;;;;;10.83;100.00;97253.25;4910636;29;20087;-93
2023/11/05 11:25:34;;;;;;;8.25;1.17;;;;;;;10.89;100.00;97253.16;4935014;29;20122;-92
2023/11/05 11:28:08;;;;;;;3.60;0.80;;;;;;;10.89;100.00;97253.16;4924472;29;20082;-92
2023/11/05 11:30:34;;;;;;;7.45;1.25;;;;;;;10.92;100.00;97250.03;4910272;29;20060;-94